createdAt,value
2019-02-12T00:01:00.423Z,10.58
2019-02-12T00:03:26.961Z,12.13
2019-02-12T00:05:53.524Z,11.28
2019-02-12T00:08:20.070Z,13.45
2019-02-12T00:10:46.638Z,14.85
2019-02-12T00:13:16.010Z,13.00
2019-02-12T00:15:42.586Z,12.98
2019-02-12T00:18:09.128Z,15.40
2019-02-12T00:20:35.708Z,16.80
2019-02-12T00:23:02.244Z,16.15
2019-02-12T00:25:28.806Z,15.55
2019-02-12T00:27:55.339Z,8.23
2019-02-12T00:30:21.915Z,14.68
2019-02-12T00:32:48.471Z,16.40
2019-02-12T00:35:15.040Z,12.50
2019-02-12T00:37:41.585Z,14.85
2019-02-12T00:40:08.987Z,20.08
2019-02-12T00:42:35.542Z,9.28
2019-02-12T00:45:02.115Z,15.08
2019-02-12T00:47:28.678Z,11.83
2019-02-12T00:49:55.212Z,11.45
2019-02-12T00:52:21.774Z,16.17
2019-02-12T00:54:48.342Z,12.47
2019-02-12T00:57:14.896Z,10.75
2019-02-12T00:59:41.433Z,10.50
2019-02-12T01:02:07.985Z,8.33
2019-02-12T01:04:34.544Z,10.93
2019-02-12T01:07:01.085Z,19.70
2019-02-12T01:09:27.641Z,9.20
2019-02-12T01:11:54.212Z,13.70
2019-02-12T01:14:20.754Z,7.28
2019-02-12T01:16:47.317Z,12.13
2019-02-12T01:19:13.849Z,13.28
2019-02-12T01:21:40.416Z,10.90
2019-02-12T01:24:06.953Z,16.17
2019-02-12T01:26:33.517Z,11.48
2019-02-12T01:29:00.065Z,15.00
2019-02-12T01:31:26.638Z,11.65
2019-02-12T01:33:53.174Z,12.50
2019-02-12T01:36:19.753Z,13.98
2019-02-12T01:38:46.290Z,14.47
2019-02-12T01:41:12.853Z,14.98
2019-02-12T01:43:39.395Z,12.28
2019-02-12T01:46:05.961Z,13.48
2019-02-12T01:48:32.504Z,14.87
2019-02-12T01:50:59.086Z,22.45
2019-02-12T01:53:25.628Z,10.32
2019-02-12T01:55:52.190Z,12.15
2019-02-12T01:58:18.722Z,11.08
2019-02-12T02:00:45.291Z,17.75
2019-02-12T02:03:11.833Z,24.23
2019-02-12T02:05:38.395Z,18.07
2019-02-12T02:08:04.937Z,15.23
2019-02-12T02:10:31.496Z,17.85
2019-02-12T02:12:58.049Z,14.05
2019-02-12T02:15:24.594Z,19.75
2019-02-12T02:17:51.168Z,15.23
2019-02-12T02:20:17.805Z,12.78
2019-02-12T02:22:44.377Z,16.73
2019-02-12T02:25:10.954Z,12.33
2019-02-12T02:27:37.514Z,17.32
2019-02-12T02:30:04.354Z,14.40
2019-02-12T02:32:31.058Z,22.80
2019-02-12T02:34:57.736Z,19.48
2019-02-12T02:37:24.514Z,13.72
2019-02-12T02:39:51.086Z,16.17
2019-02-12T02:42:17.661Z,14.73
2019-02-12T02:44:44.221Z,12.15
2019-02-12T02:47:10.795Z,10.58
2019-02-12T02:49:37.406Z,16.73
2019-02-12T02:52:03.970Z,11.95
2019-02-12T02:54:30.528Z,10.82
2019-02-12T02:56:57.092Z,16.25
2019-02-12T02:59:23.660Z,16.35
2019-02-12T03:01:50.228Z,13.45
2019-02-12T03:04:16.845Z,13.55
2019-02-12T03:06:43.393Z,11.70
2019-02-12T03:09:12.254Z,16.55
2019-02-12T03:11:38.814Z,15.58
2019-02-12T03:14:05.393Z,18.42
2019-02-12T03:16:31.947Z,24.07
2019-02-12T03:18:58.513Z,12.10
2019-02-12T03:21:25.068Z,12.90
2019-02-12T03:23:51.655Z,24.60
2019-02-12T03:26:18.190Z,20.85
2019-02-12T03:28:44.776Z,16.37
2019-02-12T03:31:11.601Z,16.30
2019-02-12T03:33:38.182Z,12.60
2019-02-12T03:36:04.713Z,15.38
2019-02-12T03:38:31.286Z,10.20
2019-02-12T03:40:57.839Z,17.82
2019-02-12T03:43:25.490Z,15.70
2019-02-12T03:45:52.045Z,11.10
2019-02-12T03:48:18.620Z,21.73
2019-02-12T03:50:45.168Z,14.70
2019-02-12T03:53:11.725Z,12.03
2019-02-12T03:55:38.272Z,13.80
2019-02-12T03:58:04.841Z,17.67
2019-02-12T04:00:31.706Z,13.80
2019-02-12T04:03:06.030Z,12.95
2019-02-12T04:05:33.020Z,10.03
2019-02-12T04:07:59.645Z,11.80
2019-02-12T04:10:26.197Z,22.22
2019-02-12T04:12:52.782Z,15.95
2019-02-12T04:15:19.333Z,15.03
2019-02-12T04:17:45.897Z,16.02
2019-02-12T04:20:12.457Z,21.50
2019-02-12T04:22:40.118Z,13.40
2019-02-12T04:25:06.695Z,20.30
2019-02-12T04:27:33.229Z,17.37
2019-02-12T04:29:59.804Z,19.48
2019-02-12T04:32:26.361Z,14.25
2019-02-12T04:34:52.916Z,11.65
2019-02-12T04:37:19.483Z,14.75
2019-02-12T04:39:46.057Z,23.52
2019-02-12T04:42:12.610Z,15.32
2019-02-12T04:44:39.178Z,8.35
2019-02-12T04:47:05.724Z,17.35
2019-02-12T04:49:32.305Z,19.85
2019-02-12T04:51:58.857Z,12.40
2019-02-12T04:54:25.440Z,21.85
2019-02-12T04:56:51.985Z,21.52
2019-02-12T04:59:18.556Z,20.35
2019-02-12T05:01:45.107Z,17.15
2019-02-12T05:04:11.680Z,16.05
2019-02-12T05:06:38.242Z,26.65
2019-02-12T05:09:16.306Z,17.42
2019-02-12T05:11:46.086Z,17.05
2019-02-12T05:14:12.667Z,21.00
2019-02-12T05:16:39.222Z,14.55
2019-02-12T05:19:05.770Z,18.05
2019-02-12T05:21:32.374Z,15.43
2019-02-12T05:23:59.221Z,14.07
2019-02-12T05:26:25.840Z,20.77
2019-02-12T05:28:52.397Z,15.63
2019-02-12T05:31:18.976Z,12.07
2019-02-12T05:33:45.542Z,18.67
2019-02-12T05:36:12.115Z,12.30
2019-02-12T05:38:38.657Z,12.25
2019-02-12T05:41:05.231Z,21.68
2019-02-12T05:43:32.988Z,23.95
2019-02-12T05:45:59.871Z,17.65
2019-02-12T05:48:26.437Z,20.52
2019-02-12T05:50:52.985Z,24.77
2019-02-12T05:53:19.537Z,20.82
2019-02-12T05:55:46.113Z,27.73
2019-02-12T05:58:12.666Z,22.77
2019-02-12T06:00:40.481Z,20.32
2019-02-12T06:03:08.314Z,27.32
2019-02-12T06:05:34.898Z,23.47
2019-02-12T06:08:01.453Z,23.65
2019-02-12T06:10:28.060Z,17.07
2019-02-12T06:12:54.642Z,20.37
2019-02-12T06:15:21.195Z,17.80
2019-02-12T06:17:47.751Z,23.38
2019-02-12T06:20:14.330Z,23.40
2019-02-12T06:22:40.885Z,22.67
2019-02-12T06:25:08.425Z,24.37
2019-02-12T06:27:35.099Z,25.95
2019-02-12T06:30:01.719Z,23.57
2019-02-12T06:32:28.271Z,20.80
2019-02-12T06:34:54.818Z,23.20
2019-02-12T06:37:21.415Z,23.52
2019-02-12T06:39:48.103Z,22.87
2019-02-12T06:42:14.647Z,18.07
2019-02-12T06:44:41.185Z,20.68
2019-02-12T06:47:07.786Z,20.37
2019-02-12T06:49:34.306Z,18.75
2019-02-12T06:52:00.880Z,13.75
2019-02-12T06:54:27.425Z,18.02
2019-02-12T06:56:53.991Z,24.92
2019-02-12T06:59:20.545Z,22.85
2019-02-12T07:01:47.166Z,17.70
2019-02-12T07:04:19.886Z,20.55
2019-02-12T07:07:31.907Z,19.20
2019-02-12T07:10:20.325Z,29.80
2019-02-12T07:13:27.752Z,29.27
2019-02-12T07:16:29.516Z,22.30
2019-02-12T07:19:13.269Z,24.70
2019-02-12T07:22:11.630Z,25.65
2019-02-12T07:25:29.366Z,28.07
2019-02-12T07:28:50.151Z,22.48
2019-02-12T07:31:54.562Z,31.65
2019-02-12T07:34:47.352Z,29.10
2019-02-12T07:37:29.260Z,30.92
2019-02-12T07:40:23.790Z,30.77
2019-02-12T07:43:33.760Z,20.92
2019-02-12T07:46:41.716Z,28.83
2019-02-12T07:49:31.075Z,17.80
2019-02-12T07:52:32.655Z,29.02
2019-02-12T07:55:41.618Z,20.20
2019-02-12T07:58:39.253Z,26.73
2019-02-12T08:01:13.779Z,24.23
2019-02-12T08:04:25.662Z,18.67
2019-02-12T08:07:17.510Z,27.10
2019-02-12T08:10:15.362Z,18.98
2019-02-12T08:13:14.332Z,16.23
2019-02-12T08:15:53.083Z,18.05
2019-02-12T08:18:47.293Z,22.90
2019-02-12T08:21:37.663Z,21.73
2019-02-12T08:24:32.567Z,16.48
2019-02-12T08:28:02.189Z,19.62
2019-02-12T08:30:55.863Z,16.05
2019-02-12T08:33:52.985Z,35.70
2019-02-12T08:36:49.170Z,20.02
2019-02-12T08:39:49.089Z,16.35
2019-02-12T08:42:58.948Z,20.43
2019-02-12T08:46:01.863Z,20.17
2019-02-12T08:49:09.988Z,23.00
2019-02-12T08:52:23.418Z,25.52
2019-02-12T08:54:59.953Z,20.50
2019-02-12T08:58:00.768Z,22.05
2019-02-12T09:00:48.258Z,20.55
2019-02-12T09:03:56.659Z,21.10
2019-02-12T09:06:32.663Z,20.45
2019-02-12T09:09:37.236Z,15.63
2019-02-12T09:12:38.519Z,22.32
2019-02-12T09:15:23.223Z,23.38
2019-02-12T09:18:50.349Z,19.12
2019-02-12T09:21:41.648Z,19.37
2019-02-12T09:24:22.403Z,28.73
2019-02-12T09:30:03.655Z,24.55
2019-02-12T09:33:11.040Z,24.67
2019-02-12T09:36:04.677Z,16.85
2019-02-12T09:39:12.927Z,19.15
2019-02-12T09:41:52.234Z,16.82
2019-02-12T09:44:54.314Z,21.90
2019-02-12T09:47:40.700Z,21.80
2019-02-12T09:50:20.156Z,11.83
2019-02-12T09:53:43.964Z,15.25
2019-02-12T09:56:28.788Z,13.28
2019-02-12T09:59:23.820Z,14.30
2019-02-12T10:02:13.692Z,18.85
2019-02-12T10:04:50.051Z,20.23
2019-02-12T10:07:47.889Z,17.25
2019-02-12T10:10:45.545Z,20.97
2019-02-12T10:13:27.897Z,17.50
2019-02-12T10:16:31.445Z,16.57
2019-02-12T10:19:10.400Z,14.50
2019-02-12T10:22:13.918Z,14.98
2019-02-12T10:25:34.731Z,18.48
2019-02-12T10:28:48.665Z,17.95
2019-02-12T10:31:16.128Z,20.15
2019-02-12T10:33:42.670Z,15.43
2019-02-12T10:36:09.257Z,17.23
2019-02-12T10:38:35.805Z,18.40
2019-02-12T10:41:02.357Z,17.30
2019-02-12T10:43:29.254Z,14.25
2019-02-12T10:45:55.813Z,10.53
2019-02-12T10:48:22.356Z,12.05
2019-02-12T10:50:48.929Z,9.05
2019-02-12T10:53:15.463Z,9.65
2019-02-12T10:55:42.024Z,10.53
2019-02-12T10:58:08.680Z,7.28
2019-02-12T11:00:35.218Z,10.75
2019-02-12T11:03:01.761Z,10.43
2019-02-12T11:05:28.313Z,10.95
2019-02-12T11:07:54.868Z,11.08
2019-02-12T11:10:21.400Z,10.72
2019-02-12T11:12:47.971Z,16.35
2019-02-12T11:15:14.570Z,5.47
2019-02-12T11:17:41.124Z,14.05
2019-02-12T11:20:07.695Z,12.93
2019-02-12T11:22:34.245Z,12.65
2019-02-12T11:25:00.803Z,16.50
2019-02-12T11:27:27.345Z,9.28
2019-02-12T11:29:53.909Z,13.88
2019-02-12T11:32:20.455Z,23.52
2019-02-12T11:34:47.027Z,17.62
2019-02-12T11:37:13.563Z,13.53
2019-02-12T11:39:40.114Z,17.17
2019-02-12T11:42:06.693Z,12.28
2019-02-12T11:44:33.235Z,17.15
2019-02-12T11:46:59.810Z,16.42
2019-02-12T11:49:26.363Z,9.98
2019-02-12T11:51:52.920Z,16.75
2019-02-12T11:54:19.464Z,21.20
2019-02-12T11:56:46.027Z,18.80
2019-02-12T11:59:12.583Z,26.60
2019-02-12T12:01:39.146Z,14.55
2019-02-12T12:04:05.699Z,13.70
2019-02-12T12:06:32.268Z,20.45
2019-02-12T12:08:58.804Z,16.55
2019-02-12T12:11:25.370Z,13.10
2019-02-12T12:13:51.941Z,14.23
2019-02-12T12:16:18.532Z,12.43
2019-02-12T12:18:45.077Z,14.60
2019-02-12T12:21:11.639Z,13.55
2019-02-12T12:23:38.178Z,15.80
2019-02-12T12:26:04.747Z,14.47
2019-02-12T12:28:31.293Z,23.38
2019-02-12T12:30:57.860Z,19.35
2019-02-12T12:33:24.399Z,10.88
2019-02-12T12:35:51.032Z,15.35
2019-02-12T12:38:17.612Z,10.10
2019-02-12T12:40:44.110Z,12.53
2019-02-12T12:43:10.670Z,15.50
2019-02-12T12:45:37.232Z,13.28
2019-02-12T12:48:03.804Z,14.85
2019-02-12T12:50:30.349Z,10.23
2019-02-12T12:52:56.905Z,17.73
2019-02-12T12:55:23.466Z,17.20
2019-02-12T12:57:51.527Z,14.45
2019-02-12T13:00:18.054Z,17.35
2019-02-12T13:02:44.609Z,10.35
2019-02-12T13:05:11.309Z,10.05
2019-02-12T13:07:37.836Z,11.73
2019-02-12T13:10:06.223Z,13.65
2019-02-12T13:12:32.798Z,8.23
2019-02-12T13:14:59.322Z,12.37
2019-02-12T13:17:25.868Z,12.55
2019-02-12T13:19:52.496Z,12.03
2019-02-12T13:22:19.062Z,11.50
2019-02-12T13:24:45.628Z,11.55
2019-02-12T13:27:12.176Z,17.45
2019-02-12T13:29:38.706Z,19.90
2019-02-12T13:32:05.273Z,14.38
2019-02-12T13:34:31.828Z,11.48
2019-02-12T13:36:58.377Z,16.70
2019-02-12T13:39:24.905Z,18.60
2019-02-12T13:41:51.456Z,15.58
2019-02-12T13:44:18.008Z,16.73
2019-02-12T13:46:44.568Z,13.03
2019-02-12T13:49:11.101Z,19.00
2019-02-12T13:51:37.656Z,12.45
2019-02-12T13:54:04.849Z,15.93
2019-02-12T13:56:31.457Z,13.03
2019-02-12T13:58:58.001Z,11.40
2019-02-12T14:01:24.532Z,11.22
2019-02-12T14:03:51.166Z,19.57
2019-02-12T14:06:17.848Z,23.57
2019-02-12T14:08:44.427Z,13.00
2019-02-12T14:11:10.971Z,15.03
2019-02-12T14:13:37.569Z,17.32
2019-02-12T14:16:04.113Z,14.80
2019-02-12T14:18:30.671Z,18.50
2019-02-12T14:20:57.202Z,13.15
2019-02-12T14:23:23.776Z,18.42
2019-02-12T14:25:50.345Z,16.10
2019-02-12T14:28:16.889Z,17.30
2019-02-12T14:30:43.455Z,20.92
2019-02-12T14:33:10.015Z,17.73
2019-02-12T14:35:36.556Z,21.40
2019-02-12T14:38:03.109Z,17.70
2019-02-12T14:40:29.677Z,13.53
2019-02-12T14:42:56.258Z,17.82
2019-02-12T14:45:22.825Z,14.78
2019-02-12T14:47:49.387Z,16.70
2019-02-12T14:50:15.935Z,18.80
2019-02-12T14:52:42.472Z,17.23
2019-02-12T14:55:09.042Z,21.20
2019-02-12T14:57:35.600Z,22.77
2019-02-12T15:00:02.220Z,14.93
2019-02-12T15:02:28.759Z,24.60
2019-02-12T15:05:00.428Z,22.55
2019-02-12T15:07:23.752Z,18.15
2019-02-12T15:09:50.320Z,16.90
2019-02-12T15:12:16.846Z,22.15
2019-02-12T15:14:43.426Z,16.07
2019-02-12T15:17:09.972Z,16.65
2019-02-12T15:19:36.523Z,21.40
2019-02-12T15:22:03.063Z,22.25
2019-02-12T15:24:29.628Z,21.42
2019-02-12T15:26:56.181Z,20.70
2019-02-12T15:29:22.737Z,16.02
2019-02-12T15:31:49.273Z,22.37
2019-02-12T15:34:15.830Z,22.05
2019-02-12T15:36:42.404Z,23.15
2019-02-12T15:39:08.951Z,16.10
2019-02-12T15:41:35.513Z,23.62
2019-02-12T15:44:02.320Z,26.05
2019-02-12T15:46:28.885Z,25.72
2019-02-12T15:48:55.465Z,19.12
2019-02-12T15:51:22.024Z,21.57
2019-02-12T15:53:48.600Z,20.08
2019-02-12T15:56:15.148Z,26.12
2019-02-12T15:58:41.722Z,24.50
2019-02-12T16:01:08.257Z,21.40
2019-02-12T16:03:37.735Z,27.60
2019-02-12T16:06:03.289Z,27.13
2019-02-12T16:08:30.466Z,25.20
2019-02-12T16:10:58.990Z,25.20
2019-02-12T16:13:25.551Z,26.42
2019-02-12T16:15:52.121Z,31.35
2019-02-12T16:18:20.669Z,29.37
2019-02-12T16:20:47.147Z,24.63
2019-02-12T16:23:15.978Z,35.98
2019-02-12T16:25:42.556Z,26.37
2019-02-12T16:28:09.090Z,22.58
2019-02-12T16:30:35.673Z,26.33
2019-02-12T16:33:02.211Z,23.90
2019-02-12T16:35:28.774Z,24.20
2019-02-12T16:37:55.306Z,27.75
2019-02-12T16:40:23.332Z,25.17
2019-02-12T16:42:50.002Z,28.57
2019-02-12T16:45:22.703Z,37.38
2019-02-12T16:47:49.247Z,29.20
2019-02-12T16:50:15.815Z,30.70
2019-02-12T16:52:42.364Z,33.10
2019-02-12T16:55:09.446Z,28.57
2019-02-12T16:57:35.994Z,31.65
2019-02-12T17:00:04.979Z,30.40
2019-02-12T17:02:31.514Z,26.55
2019-02-12T17:04:58.073Z,33.02
2019-02-12T17:07:24.653Z,30.02
2019-02-12T17:09:52.551Z,41.15
2019-02-12T17:12:19.580Z,36.80
2019-02-12T17:14:46.156Z,27.95
2019-02-12T17:17:12.700Z,36.42
2019-02-12T17:19:39.271Z,31.35
2019-02-12T17:22:05.805Z,81.82
2019-02-12T17:24:32.372Z,61.50
2019-02-12T17:26:59.039Z,33.95
2019-02-12T17:29:25.604Z,29.50
2019-02-12T17:31:52.173Z,33.38
2019-02-12T17:34:18.724Z,37.78
2019-02-12T17:36:45.286Z,35.58
2019-02-12T17:39:11.831Z,36.53
2019-02-12T17:41:38.392Z,41.30
2019-02-12T17:44:04.955Z,39.00
2019-02-12T17:46:32.364Z,37.75
2019-02-12T17:48:58.923Z,31.25
2019-02-12T17:51:25.490Z,28.32
2019-02-12T17:53:52.189Z,33.92
2019-02-12T17:56:24.785Z,33.95
2019-02-12T17:58:47.213Z,27.93
2019-02-12T18:01:13.821Z,31.93
2019-02-12T18:03:40.379Z,35.40
2019-02-12T18:06:06.913Z,35.48
2019-02-12T18:08:33.513Z,29.67
2019-02-12T18:11:00.066Z,33.10
2019-02-12T18:13:26.626Z,32.10
2019-02-12T18:15:53.198Z,25.90
2019-02-12T18:18:19.761Z,34.75
2019-02-12T18:20:46.319Z,29.07
2019-02-12T18:23:12.887Z,40.80
2019-02-12T18:25:39.428Z,32.13
2019-02-12T18:28:05.999Z,32.73
2019-02-12T18:30:32.557Z,33.25
2019-02-12T18:32:59.095Z,26.27
2019-02-12T18:35:25.656Z,33.23
2019-02-12T18:37:52.208Z,31.10
2019-02-12T18:40:18.760Z,29.63
2019-02-12T18:42:45.350Z,34.78
2019-02-12T18:45:12.948Z,36.40
2019-02-12T18:47:39.504Z,30.50
2019-02-12T18:50:06.702Z,28.90
2019-02-12T18:52:33.260Z,32.03
2019-02-12T18:54:59.796Z,32.63
2019-02-12T18:57:26.362Z,35.13
2019-02-12T18:59:52.925Z,37.13
2019-02-12T19:02:19.457Z,34.75
2019-02-12T19:04:46.026Z,38.80
2019-02-12T19:07:12.581Z,32.03
2019-02-12T19:09:39.144Z,34.92
2019-02-12T19:12:05.703Z,39.53
2019-02-12T19:14:32.256Z,36.20
2019-02-12T19:16:58.813Z,38.55
2019-02-12T19:19:25.349Z,37.42
2019-02-12T19:21:51.904Z,33.05
2019-02-12T19:24:18.455Z,35.92
2019-02-12T19:26:49.873Z,39.83
2019-02-12T19:29:13.460Z,33.48
2019-02-12T19:31:40.012Z,38.60
2019-02-12T19:34:06.576Z,42.15
2019-02-12T19:36:33.139Z,37.40
2019-02-12T19:38:59.716Z,36.13
2019-02-12T19:41:26.265Z,37.20
2019-02-12T19:43:52.870Z,31.12
2019-02-12T19:46:19.417Z,36.70
2019-02-12T19:48:45.980Z,37.95
2019-02-12T19:51:12.522Z,50.08
2019-02-12T19:53:39.085Z,36.88
2019-02-12T19:56:05.631Z,34.00
2019-02-12T19:58:32.197Z,37.67
2019-02-12T20:00:58.772Z,38.30
2019-02-12T20:03:25.315Z,35.83
2019-02-12T20:05:51.889Z,36.48
2019-02-12T20:08:18.448Z,37.42
2019-02-12T20:10:44.984Z,38.08
2019-02-12T20:13:11.568Z,38.63
2019-02-12T20:15:38.128Z,43.13
2019-02-12T20:18:04.988Z,43.25
2019-02-12T20:20:31.520Z,36.90
2019-02-12T20:22:58.091Z,40.40
2019-02-12T20:25:24.632Z,40.45
2019-02-12T20:27:51.183Z,33.40
2019-02-12T20:30:17.756Z,44.13
2019-02-12T20:32:44.292Z,49.00
2019-02-12T20:35:11.389Z,45.33
2019-02-12T20:37:37.962Z,44.27
2019-02-12T20:40:05.723Z,36.45
2019-02-12T20:42:32.273Z,40.25
2019-02-12T20:44:58.850Z,37.38
2019-02-12T20:47:25.410Z,50.73
2019-02-12T20:49:51.977Z,41.88
2019-02-12T20:52:18.520Z,47.08
2019-02-12T20:54:45.084Z,44.65
2019-02-12T20:57:15.188Z,49.55
2019-02-12T20:59:40.118Z,46.05
2019-02-12T21:02:06.653Z,43.48
2019-02-12T21:04:33.222Z,41.53
2019-02-12T21:06:59.761Z,42.15
2019-02-12T21:09:26.324Z,39.38
2019-02-12T21:11:52.884Z,40.80
2019-02-12T21:14:19.468Z,47.08
2019-02-12T21:16:46.014Z,42.05
2019-02-12T21:19:12.586Z,46.13
2019-02-12T21:21:39.133Z,44.65
2019-02-12T21:24:05.713Z,42.98
2019-02-12T21:26:32.258Z,47.03
2019-02-12T21:28:58.823Z,46.00
2019-02-12T21:31:25.368Z,44.35
2019-02-12T21:33:51.922Z,45.52
2019-02-12T21:36:18.479Z,52.75
2019-02-12T21:38:45.018Z,43.68
2019-02-12T21:41:11.586Z,43.87
2019-02-12T21:43:38.142Z,48.48
2019-02-12T21:46:04.712Z,48.02
2019-02-12T21:48:31.257Z,48.98
2019-02-12T21:50:57.817Z,43.50
2019-02-12T21:53:24.360Z,44.77
2019-02-12T21:55:50.931Z,46.45
2019-02-12T21:58:17.491Z,44.50
2019-02-12T22:00:44.073Z,47.43
2019-02-12T22:03:10.610Z,48.83
2019-02-12T22:05:37.179Z,49.33
2019-02-12T22:08:03.727Z,50.43
2019-02-12T22:10:30.276Z,46.02
2019-02-12T22:12:56.836Z,50.23
2019-02-12T22:15:23.390Z,49.00
2019-02-12T22:17:49.933Z,48.83
2019-02-12T22:20:16.488Z,48.05
2019-02-12T22:22:43.028Z,47.60
2019-02-12T22:25:09.595Z,224.95
2019-02-12T22:27:40.408Z,202.53
2019-02-12T22:30:08.496Z,72.32
2019-02-12T22:32:35.046Z,62.50
2019-02-12T22:35:01.605Z,49.08
2019-02-12T22:37:28.165Z,45.70
2019-02-12T22:39:54.695Z,53.33
2019-02-12T22:42:21.270Z,43.50
2019-02-12T22:44:47.815Z,45.43
2019-02-12T22:47:14.373Z,50.20
2019-02-12T22:49:40.927Z,47.00
2019-02-12T22:52:07.487Z,48.55
2019-02-12T22:54:34.026Z,53.23
2019-02-12T22:57:00.587Z,68.85
2019-02-12T22:59:27.122Z,52.33
2019-02-12T23:01:53.694Z,45.10
2019-02-12T23:04:20.239Z,40.73
2019-02-12T23:06:46.798Z,39.92
2019-02-12T23:09:15.924Z,40.28
2019-02-12T23:11:42.498Z,41.45
2019-02-12T23:14:09.055Z,45.78
2019-02-12T23:16:35.616Z,48.92
2019-02-12T23:19:02.167Z,43.92
2019-02-12T23:21:28.728Z,35.17
2019-02-12T23:23:55.273Z,40.80
2019-02-12T23:26:21.839Z,38.13
2019-02-12T23:28:48.404Z,39.42
2019-02-12T23:31:14.973Z,36.33
2019-02-12T23:33:41.510Z,37.13
2019-02-12T23:36:08.073Z,36.48
2019-02-12T23:38:34.621Z,38.53
2019-02-12T23:41:01.190Z,35.92
2019-02-12T23:43:27.731Z,34.25
2019-02-12T23:45:54.313Z,29.82
2019-02-12T23:48:20.857Z,36.73
2019-02-12T23:50:47.609Z,35.10
2019-02-12T23:53:14.172Z,38.10
2019-02-12T23:55:40.715Z,38.05
2019-02-12T23:58:07.283Z,36.60
